Create Custom Reports and Graphics: Custom Report

North/Central Map

Map

15 Minute Data

South County Map

Map

15 Minute Data

Northern Sonoma County Latest

15 Stations

15 Minute Data | America/Los_Angeles
as of 11/29/21 7:28 AM PST
Station Date Time Temp (°F) RH (%) Dew Pt (°F) Wind Spd (mph) Wind Dir (°) Wind Gust (mph) Latest Rain (In) Daily Rain (In) Daily Min Temp (°F) Daily Max Temp (°F)
Rockpile Lower (Cooley) 11/29/21 0700 55.7   1.4 73   10 47.1   4.7 0.4 N | 2 2.0   1.0 0.00 0.00 53.6   2.6 58.4   0.8
Rockpile Upper (Cooley) 11/29/21 0715 56.4   2.1 66   7 45.0   4.6 5.6 NNW | 341 8.1   5.0 0.00 0.00 53.6   3.5 59.1   2.4
Cloverdale-East (Ranch 83) 11/29/21 0715 52.6   8.1 89   11 49.4   4.9 6.7 NNW | 344 12.5   11.0 0.00 0.00 41.4   1.6 53.8   2.4
Cloverdale-SE (Ranch 38) 11/29/21 0715 52.8   1.2 88   4 49.5   0.1 4.8 N | 354 8.6   4.3 0.00 0.00 50.0   0.7 55.5   0.6
Geyserville-North (Hoffman) 11/29/21 0700 39.7   1.1 97   0 39.0   1.0 0.2 NE | 35 1.1   0.0 0.00 0.00 39.2   0.8 45.1   0.9
Geyserville (Ranch 3) 11/29/21 0715 40.6   1.1 100   0 40.6   1.1 0.2 WSW | 246 1.4   1.1 0.00 0.00 40.4   0.7 45.1   1.2
Geyserville-East (Ranch 40) 11/29/21 0715 51.0   2.2 97   11 50.3   1.1 1.5 NNE | 26 2.5   0.1 0.00 0.00 50.4   0.9 55.4   1.6
Geyserville-South (Nervo Station) 11/29/21 0715 44.5   2.9 100   3 44.5   2.1 0.0 N | 0 0.0   0.0 0.00 0.00 42.8   2.8 51.7   0.0
Lytton (River Oaks) 11/29/21 0715 40.2   1.0 100   0 40.2   1.0 0.9 ESE | 111 2.5   0.8 0.00 0.00 40.0   0.9 43.4   0.3
Jimtown-North (Piccolo-R15) 11/29/21 0715 40.4   0.0 100   0 40.4   0.0 0.4 E | 96 1.5   0.4 0.00 0.00 39.4   0.5 43.3   0.5
Jimtown-NE (Red Fan) 11/29/21 0715 42.2   1.1 100   0 42.2   1.1 1.4 ENE | 77 3.2   3.2 0.00 0.00 41.2   0.1 44.8   0.1
HWY 128/Chalk Hill Rd (Landslide) 11/29/21 0715 39.9   0.8 100   0 39.9   0.8 0.8 N | 358 2.2   1.5 0.00 0.00 39.5   1.1 44.2   0.0
Knights Valley (Bavarian Lion) 11/29/21 0715 41.5   0.4 100   1 41.4   0.1 0.3 SE | 136 1.2   1.5 0.00 0.00 40.7   0.0 44.4   0.6
Upper Dry Creek Valley 11/29/21 0715 41.6   1.2 99   1 41.4   0.9 0.5 NW | 309 1.6   0.9 0.00 0.00 41.2   1.3 45.8   0.2
Lower Dry Creek Valley 11/29/21 0715 42.3   0.4 100   0 42.3   0.4 0.3 NW | 322 2.0   1.0 0.00 0.00 42.0   0.2 45.9   0.1
Max     56.4 100 50.3 6.7 - 12.5 0.00 0.00 53.6 59.1
Avg     45.4 94 43.5 1.6 - 3.4 0.00 - - -
Min     39.7 66 39.0 0.0 - 0.0 0.00 0.00 39.2 43.3

Central Sonoma County Latest

29 Stations

15 Minute Data | America/Los_Angeles
as of 11/29/21 7:28 AM PST
Station Date Time Temp (°F) RH (%) Dew Pt (°F) Wind Spd (mph) Wind Dir (°) Wind Gust (mph) Latest Rain (In) Daily Rain (In) Daily Min Temp (°F) Daily Max Temp (°F)
Healdsburg-South (Sodini) 11/29/21 0715 41.7   1.5 99   0 41.4   1.4 0.0 N | 0 0.0   0.0 0.00 0.01 41.2   1.2 46.5   0.2
Windsor-NW (Ranch 8) 11/29/21 0715 45.6   0.7 87   1 42.0   0.5 0.5 NNE | 32 1.6   1.6 0.00 0.00 45.1   0.6 50.0   0.1
Windsor-East (Ranch 16) 11/29/21 0715 40.6   2.5 100   1 40.6   2.1 0.0 N | 0 0.0   1.7 0.00 0.00 40.3   1.3 46.8   0.6
Mark West-North (Ranch 14) 11/29/21 0715 40.1   1.8 98   0 39.6   1.8 0.2 NNW | 348 1.0   0.1 0.00 0.00 39.8   1.1 46.0   0.2
Windsor-SE (Silk Rd) 11/29/21 0715 42.1   1.3 100   0 42.1   1.3 0.0 N | 0 0.0   0.0 0.00 0.00 41.4   0.9 44.8   0.2
Fulton-NW (Ranch 5) 11/29/21 0715 41.1   0.2 100   0 41.1   0.3 0.1 E | 91 0.9   0.1 0.00 0.00 40.5   0.3 45.8   0.2
Windsor-South (Laughlin Rd) 11/29/21 0715 43.7   1.4 - - - - - 0.00 0.00 42.3   0.5 49.9   1.0
Fulton-SE (Barnes Rd) 11/29/21 0715 40.0   1.8 98   1 39.5   1.6 1.2 W | 271 2.7   2.6 0.00 0.00 39.9   1.4 47.4   0.9
Fulton-SW (Ranch 21) 11/29/21 0715 42.8   0.1 100   0 42.9   0.1 0.1 E | 79 1.4   1.4 0.00 0.00 42.6   0.1 47.9   0.2
Santa Rosa-NW (Goldfields) 11/29/21 0715 44.3   1.4 100   0 44.3   1.4 0.3 WNW | 292 1.5   0.5 0.00 0.00 43.4   1.1 48.3   1.0
NW Santa Rosa (Piner Road) 11/29/21 0715 44.0   2.5 99   0 43.9   2.5 0.0 N | 0 0.0   0.0 0.00 0.00 43.1   2.0 46.3   0.2
River Rd South (Denner Ranch) 11/29/21 0715 42.6   0.2 100   0 42.6   0.2 0.4 NNE | 12 1.1   0.2 - - 41.8   0.2 47.8   1.0
West Santa Rosa (Hawk's Roost) 11/29/21 0715 43.8   1.6 100   1 43.8   1.8 0.0 N | 0 0.0   0.0 0.00 0.00 43.0   1.2 46.7   0.1
Guerneville Rd (Prokopakis) 11/29/21 0715 43.5   0.3 100   0 43.5   0.3 - - - 0.00 0.00 42.3   0.1 47.5   0.6
Guerneville Rd West (Balletto) 11/29/21 0715 43.8   3.0 99   0 43.6   3.1 0.0 N | 0 0.0   1.4 0.00 0.00 42.2   1.5 44.5   0.1
Guerneville Rd East (Rich Ranch) 11/29/21 0715 43.8   2.7 100   1 43.8   2.9 - - - - - 43.1   2.2 45.6   0.2
Occidental Rd (Sebastopol) 11/29/21 0715 43.1   1.9 100   0 43.1   1.9 0.3 NW | 323 1.3   1.3 0.00 0.00 41.3   0.6 46.1   0.1
Lower Westside Rd (Ranch 12) 11/29/21 0715 42.0   0.0 100   0 42.0   0.1 0.0 N | 0 0.0   0.0 0.00 0.00 41.3   0.2 46.4   0.7
Guerneville (Laughlin Rd) 11/29/21 0715 45.3   4.3 100   0 45.4   4.3 1.1 NNW | 328 2.5   2.5 0.00 0.01 45.1   4.3 48.3   3.2
Korbel (Winery) 11/29/21 0715 46.4   4.7 100   0 46.4   4.7 0.2 NW | 321 1.6   1.6 0.01 0.01 46.3   4.7 48.0   2.9
Forestville (Shone Farms) 11/29/21 0715 43.9   1.8 97   0 43.1   1.7 0.0 N | 0 0.0   1.9 0.00 0.00 42.3   1.5 50.3   0.5
Forestville-NE (Ranch 30) 11/29/21 0715 44.0   1.4 100   0 43.9   1.4 0.2 NW | 322 1.1   0.1 0.00 0.00 43.7   2.1 48.2   1.8
Green Valley Vineyard 11/29/21 0715 45.0   0.9 100   2 44.9   0.5 0.7 W | 278 2.4   0.4 0.00 0.00 44.2   0.9 49.7   0.7
Graton-West (Dutton Ranch) 11/29/21 0715 40.8   0.7 100   0 40.8   0.7 0.0 N | 0 0.0   0.6 0.00 0.00 40.1   0.9 45.6   0.1
Graton-South (Mill Station Rd) 11/29/21 0715 40.2   1.0 100   2 40.2   1.6 0.0 N | 0 0.0   0.7 0.00 0.00 38.4   0.5 43.7   0.4
Occidental (Horseshoe Bend) 11/29/21 0715 51.3   2.6 95   10 49.9   0.4 - - - - - 51.0   2.5 56.6   0.9
Sexton Valley (Jacqueline's Blk) 11/29/21 0715 39.9   1.0 99   0 39.6   0.9 0.0 N | 0 0.0   0.0 0.00 0.00 39.0   1.7 44.5   0.5
Sebastopol Hills (Burnside Rd) 11/29/21 0715 49.4   0.8 98   2 49.0   0.3 0.0 NW | 323 0.2   1.3 0.00 0.00 48.9   0.1 53.6   0.3
Seaview/Fort Ross (Hirsch) 11/29/21 0715 59.8   0.8 50   24 41.3   9.7 2.3 E | 88 3.1   1.3 0.00 0.00 56.2   2.1 60.8   3.2
Max     59.8 100 49.9 2.3 - 3.1 0.01 0.01 56.2 60.8
Avg     44.0 97 43.0 0.3 - 0.9 0.00 - - -
Min     39.9 50 39.5 0.0 - 0.0 0.00 0.00 38.4 43.7

Southern Sonoma County Latest

16 Stations

15 Minute Data | America/Los_Angeles
as of 11/29/21 7:28 AM PST
Station Date Time Temp (°F) RH (%) Dew Pt (°F) Wind Spd (mph) Wind Dir (°) Wind Gust (mph) Latest Rain (In) Daily Rain (In) Daily Min Temp (°F) Daily Max Temp (°F)
Upper Rincon Valley 11/29/21 0715 51.4   0.2 93   10 49.5   2.8 1.1 NE | 40 3.0   0.6 0.00 0.00 50.1   0.8 54.6   1.7
Lower Bennett Valley 11/29/21 0715 40.0   1.8 100   0 39.9   1.7 0.3 S | 176 1.9   0.6 0.00 0.00 39.0   0.9 43.1   0.4
Kenwood (Kunde) 11/29/21 0700 39.5   0.6 99   0 39.3   0.6 0.2 WNW | 295 2.3   2.3 0.00 0.00 38.2   0.2 43.5   0.7
Sonoma Valley (Bedrock) 11/29/21 0715 42.0   0.6 2   0 -42.5   0.5 1.0 N | 3 2.7   0.0 0.00 0.00 41.2   0.5 45.3   0.1
Sonoma-West (Arnold) 11/29/21 0700 42.5   0.1 98   2 42.0   0.5 1.0 WNW | 291 2.1   0.1 0.00 0.00 42.2   0.3 47.3   1.0
Sonoma Valley HS 11/29/21 0715 41.6   0.6 100   1 41.5   0.5 0.0 N | 6 1.4   0.7 0.00 0.00 41.1   1.0 46.7   0.6
Sonoma East (Bundschu01) 11/29/21 0715 40.6   0.7 99   1 40.4   0.3 0.9 WNW | 285 2.2   0.4 0.00 0.00 40.0   0.9 45.8   0.9
Schellville (Sasaki) 11/29/21 0715 40.6   0.4 97   0 39.8   0.4 0.0 N | 0 0.0   0.0 0.00 0.00 40.1   0.7 45.4   0.1
Sonoma-SE (Napoli) 11/29/21 0715 41.5   0.7 96   0 40.4   0.6 0.0 N | 0 0.0   0.0 0.00 0.01 41.0   0.6 46.1   0.2
Carneros (Ranch 71) 11/29/21 0715 51.0   0.2 90   10 48.3   3.4 3.0 NW | 326 5.9   3.2 0.00 0.00 49.7   0.4 58.2   2.9
Carneros Upper (Ranch 81) 11/29/21 0715 50.6   3.2 92   22 48.3   4.2 3.9 NNE | 21 4.5   2.3 - - 50.2   2.5 58.4   1.5
Carneros Lower (Ranch 81) 11/29/21 0715 41.6   0.4 100   1 41.6   0.0 0.8 N | 9 1.5   0.2 0.00 0.00 40.7   0.8 46.5   1.4
Rohnert Park-West (Stony Point) 11/29/21 0715 44.4   4.6 100   1 44.3   4.8 0.1 ESE | 120 1.1   1.1 0.00 0.00 41.3   1.8 45.0   0.7
Penngrove (Asellus) 11/29/21 0715 43.0   0.5 100   0 43.0   0.6 1.2 NW | 317 2.6   1.1 0.00 0.00 41.1   1.0 47.7   0.7
Roger's Creek (Ranch 50) 11/29/21 0715 55.4   0.7 79   11 49.0   4.8 1.5 WNW | 302 2.4   2.8 0.00 0.00 54.4   0.2 57.7   0.5
Petaluma (Ranch 10) 11/29/21 0715 42.3   2.1 100   0 42.3   2.1 0.3 NE | 44 1.2   0.2 0.00 0.00 39.9   0.2 44.3   0.7
Max     55.4 100 49.5 3.9 - 5.9 0.00 0.01 54.4 58.4
Avg     44.2 90 38.0 0.9 - 2.2 0.00 - - -
Min     39.5 2 -42.5 0.0 - 0.0 0.00 0.00 38.2 43.1

Latest Observations

Map

Hourly Data